createdAt,value
2019-02-08T00:02:20.943Z,98907.71
2019-02-08T00:04:51.270Z,98906.50
2019-02-08T00:07:21.470Z,98916.94
2019-02-08T00:09:51.762Z,98910.91
2019-02-08T00:12:22.372Z,98910.69
2019-02-08T00:14:52.574Z,98907.38
2019-02-08T00:17:23.107Z,98904.76
2019-02-08T00:19:53.761Z,98916.23
2019-02-08T00:22:23.978Z,98914.50
2019-02-08T00:24:54.201Z,98922.02
2019-02-08T00:27:24.900Z,98920.80
2019-02-08T00:29:55.091Z,98928.63
2019-02-08T00:32:25.345Z,98919.92
2019-02-08T00:34:55.987Z,98923.25
2019-02-08T00:37:26.181Z,98922.11
2019-02-08T00:39:56.373Z,98931.41
2019-02-08T00:42:26.603Z,98928.98
2019-02-08T00:44:56.879Z,98929.72
2019-02-08T00:47:27.064Z,98928.64
2019-02-08T00:49:57.347Z,98922.77
2019-02-08T00:52:27.541Z,98928.29
2019-02-08T00:54:57.797Z,98930.30
2019-02-08T00:57:28.001Z,98932.86
2019-02-08T00:59:58.212Z,98938.00
2019-02-08T01:02:28.716Z,98937.92
2019-02-08T01:04:59.327Z,98937.70
2019-02-08T01:07:29.552Z,98942.20
2019-02-08T01:09:59.770Z,98944.53
2019-02-08T01:12:30.002Z,98945.83
2019-02-08T01:15:00.254Z,98938.20
2019-02-08T01:17:31.508Z,98938.73
2019-02-08T01:20:02.755Z,98940.69
2019-02-08T01:22:33.930Z,98942.25
2019-02-08T01:25:05.468Z,98929.84
2019-02-08T01:27:35.683Z,98927.94
2019-02-08T01:30:09.261Z,98922.53
2019-02-08T01:32:39.534Z,98923.03
2019-02-08T01:35:10.803Z,98925.35
2019-02-08T01:37:41.031Z,98931.41
2019-02-08T01:40:16.827Z,98923.65
2019-02-08T01:42:47.675Z,98921.66
2019-02-08T01:45:20.357Z,98928.60
2019-02-08T01:47:50.707Z,98923.48
2019-02-08T01:50:22.607Z,98926.70
2019-02-08T01:52:52.943Z,98928.81
2019-02-08T01:55:23.208Z,98929.79
2019-02-08T01:57:53.942Z,98929.73
2019-02-08T02:00:26.748Z,98932.36
2019-02-08T02:02:57.230Z,98937.84
2019-02-08T02:05:27.587Z,98938.72
2019-02-08T02:07:57.851Z,98937.52
2019-02-08T02:10:36.041Z,98940.45
2019-02-08T02:13:06.984Z,98942.88
2019-02-08T02:15:37.317Z,98953.49
2019-02-08T02:18:08.716Z,98954.84
2019-02-08T02:20:40.968Z,98956.97
2019-02-08T02:23:13.284Z,98963.76
2019-02-08T02:25:43.522Z,98957.14
2019-02-08T02:28:13.920Z,98955.42
2019-02-08T02:30:44.275Z,98957.39
2019-02-08T02:33:14.914Z,98964.56
2019-02-08T02:35:45.431Z,98963.30
2019-02-08T02:38:16.642Z,98956.63
2019-02-08T02:40:46.814Z,98955.05
2019-02-08T02:43:17.019Z,98954.94
2019-02-08T02:45:47.662Z,98956.48
2019-02-08T02:48:17.921Z,98959.13
2019-02-08T02:50:48.121Z,98963.95
2019-02-08T02:53:18.667Z,98971.18
2019-02-08T02:55:48.882Z,98970.30
2019-02-08T02:58:19.153Z,98975.23
2019-02-08T03:00:49.437Z,98968.75
2019-02-08T03:03:19.934Z,98969.08
2019-02-08T03:05:50.326Z,98967.62
2019-02-08T03:08:21.491Z,98973.02
2019-02-08T03:10:51.740Z,98978.48
2019-02-08T03:13:22.049Z,98981.16
2019-02-08T03:15:52.206Z,98980.53
2019-02-08T03:18:22.395Z,98985.72
2019-02-08T03:20:52.772Z,98989.54
2019-02-08T03:23:23.040Z,98983.05
2019-02-08T03:25:53.256Z,98981.18
2019-02-08T03:28:23.758Z,98979.59
2019-02-08T03:30:56.321Z,98982.93
2019-02-08T03:33:26.790Z,98975.12
2019-02-08T03:35:57.341Z,98980.16
2019-02-08T03:38:27.532Z,98977.72
2019-02-08T03:40:57.858Z,98978.27
2019-02-08T03:43:28.131Z,98977.55
2019-02-08T03:45:58.344Z,98981.79
2019-02-08T03:48:28.533Z,98982.89
2019-02-08T03:50:58.721Z,98983.40
2019-02-08T03:53:28.974Z,98970.80
2019-02-08T03:55:59.173Z,98973.22
2019-02-08T03:58:29.371Z,98975.09
2019-02-08T04:01:04.764Z,98974.92
2019-02-08T04:03:35.316Z,98982.55
2019-02-08T04:06:06.299Z,98988.45
2019-02-08T04:08:36.495Z,98990.36
2019-02-08T04:11:06.666Z,98990.82
2019-02-08T04:13:36.872Z,98996.64
2019-02-08T04:16:07.215Z,98998.70
2019-02-08T04:18:37.419Z,98992.10
2019-02-08T04:21:07.641Z,98993.92
2019-02-08T04:23:37.868Z,98995.79
2019-02-08T04:26:08.077Z,98997.16
2019-02-08T04:28:38.329Z,99003.66
2019-02-08T04:31:08.840Z,98998.97
2019-02-08T04:33:39.012Z,98997.61
2019-02-08T04:36:09.452Z,98998.87
2019-02-08T04:38:39.775Z,99008.05
2019-02-08T04:41:09.986Z,99001.78
2019-02-08T04:43:40.324Z,99005.98
2019-02-08T04:46:10.554Z,99011.22
2019-02-08T04:48:40.810Z,99013.83
2019-02-08T04:51:11.004Z,99007.27
2019-02-08T04:53:41.215Z,99019.02
2019-02-08T04:56:11.450Z,99021.44
2019-02-08T04:58:41.700Z,99003.47
2019-02-08T05:01:11.934Z,99025.05
2019-02-08T05:03:42.444Z,99018.75
2019-02-08T05:06:12.682Z,99016.88
2019-02-08T05:08:42.880Z,99026.27
2019-02-08T05:11:13.129Z,99033.42
2019-02-08T05:13:43.323Z,99033.17
2019-02-08T05:16:13.533Z,99026.74
2019-02-08T05:18:43.726Z,99015.29
2019-02-08T05:21:14.058Z,99008.42
2019-02-08T05:23:44.215Z,99017.64
2019-02-08T05:26:14.436Z,99017.70
2019-02-08T05:28:44.921Z,99024.98
2019-02-08T05:31:15.177Z,99027.61
2019-02-08T05:33:45.343Z,99040.73
2019-02-08T05:36:15.617Z,99045.88
2019-02-08T05:38:45.818Z,99040.22
2019-02-08T05:41:16.176Z,99040.22
2019-02-08T05:43:46.413Z,99046.98
2019-02-08T05:46:16.688Z,99044.02
2019-02-08T05:48:46.897Z,99043.80
2019-02-08T05:51:17.143Z,99043.17
2019-02-08T05:53:47.318Z,99046.03
2019-02-08T05:56:17.752Z,99050.68
2019-02-08T05:58:48.002Z,99052.80
2019-02-08T06:01:18.229Z,99050.39
2019-02-08T06:03:48.572Z,99049.56
2019-02-08T06:06:18.983Z,99044.78
2019-02-08T06:08:49.334Z,99049.52
2019-02-08T06:11:19.589Z,99044.80
2019-02-08T06:13:49.911Z,99044.92
2019-02-08T06:16:21.307Z,99047.38
2019-02-08T06:18:51.555Z,99045.23
2019-02-08T06:21:21.729Z,99053.00
2019-02-08T06:23:51.952Z,99048.32
2019-02-08T06:26:22.500Z,99048.69
2019-02-08T06:28:52.712Z,99041.76
2019-02-08T06:31:23.996Z,99037.83
2019-02-08T06:33:54.257Z,99044.73
2019-02-08T06:36:24.589Z,99049.89
2019-02-08T06:38:54.837Z,99039.16
2019-02-08T06:41:25.327Z,99044.92
2019-02-08T06:43:55.630Z,99048.97
2019-02-08T06:46:26.837Z,99050.27
2019-02-08T06:48:57.951Z,99056.22
2019-02-08T06:51:28.314Z,99060.66
2019-02-08T06:53:58.637Z,99061.52
2019-02-08T06:56:46.236Z,99061.05
2019-02-08T06:59:35.762Z,99065.03
2019-02-08T07:02:17.211Z,99061.73
2019-02-08T07:05:06.754Z,99069.31
2019-02-08T07:07:52.725Z,99072.30
2019-02-08T07:10:50.713Z,99065.13
2019-02-08T07:13:39.877Z,99072.08
2019-02-08T07:16:35.111Z,99069.50
2019-02-08T07:19:30.326Z,99068.02
2019-02-08T07:22:25.325Z,99078.27
2019-02-08T07:25:18.156Z,99084.16
2019-02-08T07:27:49.443Z,99086.53
2019-02-08T07:30:52.545Z,99088.19
2019-02-08T07:33:37.674Z,99091.20
2019-02-08T07:36:38.306Z,99102.71
2019-02-08T07:39:19.588Z,99106.70
2019-02-08T07:42:26.954Z,99105.48
2019-02-08T07:45:06.916Z,99101.03
2019-02-08T07:47:44.731Z,99100.96
2019-02-08T07:50:33.944Z,99097.48
2019-02-08T07:53:37.301Z,99089.63
2019-02-08T07:56:25.048Z,99091.50
2019-02-08T07:59:17.084Z,99090.68
2019-02-08T08:02:08.195Z,99091.19
2019-02-08T08:05:03.665Z,99094.87
2019-02-08T08:07:53.305Z,99089.94
2019-02-08T08:10:38.203Z,99092.17
2019-02-08T08:13:38.158Z,99092.16
2019-02-08T08:16:24.290Z,99095.75
2019-02-08T08:19:24.100Z,99093.78
2019-02-08T08:22:08.611Z,99085.05
2019-02-08T08:25:03.120Z,99089.76
2019-02-08T08:27:52.592Z,99094.79
2019-02-08T08:30:38.952Z,99100.34
2019-02-08T08:33:33.129Z,99103.63
2019-02-08T08:37:08.711Z,99110.14
2019-02-08T08:40:29.266Z,99106.59
2019-02-08T08:43:52.521Z,99102.80
2019-02-08T08:47:14.864Z,99101.50
2019-02-08T08:50:25.081Z,99102.83
2019-02-08T08:53:39.208Z,99100.30
2019-02-08T08:56:58.051Z,99104.55
2019-02-08T08:59:54.327Z,99096.22
2019-02-08T09:02:58.236Z,99095.27
2019-02-08T09:05:55.840Z,99099.58
2019-02-08T09:09:02.652Z,99089.53
2019-02-08T09:12:22.361Z,99080.89
2019-02-08T09:15:22.491Z,99068.66
2019-02-08T09:18:42.377Z,99066.57
2019-02-08T09:21:55.618Z,99059.39
2019-02-08T09:25:13.161Z,99060.70
2019-02-08T09:28:23.363Z,99061.22
2019-02-08T09:31:42.281Z,99057.70
2019-02-08T09:35:14.269Z,99058.16
2019-02-08T09:38:43.386Z,99053.56
2019-02-08T09:41:43.903Z,99051.01
2019-02-08T09:45:16.904Z,99052.52
2019-02-08T09:48:42.846Z,99045.71
2019-02-08T09:51:59.867Z,99048.48
2019-02-08T09:55:10.553Z,99049.28
2019-02-08T09:58:20.580Z,99047.47
2019-02-08T10:01:43.440Z,99049.80
2019-02-08T10:04:41.436Z,99037.98
2019-02-08T10:07:51.865Z,99041.95
2019-02-08T10:11:09.548Z,99045.84
2019-02-08T10:14:31.705Z,99046.08
2019-02-08T10:17:42.890Z,99054.39
2019-02-08T10:20:59.618Z,99054.83
2019-02-08T10:24:09.906Z,99057.08
2019-02-08T10:27:18.941Z,99052.09
2019-02-08T10:30:43.096Z,99053.34
2019-02-08T10:33:55.709Z,99056.22
2019-02-08T10:37:05.550Z,99046.55
2019-02-08T10:40:23.476Z,99046.83
2019-02-08T10:43:50.766Z,99041.25
2019-02-08T10:47:00.931Z,99034.45
2019-02-08T10:50:04.852Z,99041.67
2019-02-08T10:53:11.538Z,99033.22
2019-02-08T10:56:17.029Z,99029.09
2019-02-08T10:59:29.965Z,99022.89
2019-02-08T11:02:41.788Z,99031.25
2019-02-08T11:05:59.242Z,99019.27
2019-02-08T11:09:09.696Z,99016.13
2019-02-08T11:12:28.772Z,99021.46
2019-02-08T11:15:39.992Z,99010.75
2019-02-08T11:18:45.770Z,99014.02
2019-02-08T11:21:15.990Z,99013.28
2019-02-08T11:23:48.406Z,99006.12
2019-02-08T11:26:23.183Z,99004.86
2019-02-08T11:28:51.064Z,99007.02
2019-02-08T11:31:21.329Z,99000.20
2019-02-08T11:33:52.405Z,98991.45
2019-02-08T11:36:24.492Z,98987.13
2019-02-08T11:38:54.752Z,98990.14
2019-02-08T11:41:25.937Z,98990.60
2019-02-08T11:43:56.145Z,98980.17
2019-02-08T11:46:29.201Z,98979.66
2019-02-08T11:49:02.280Z,98978.76
2019-02-08T11:51:33.606Z,98983.21
2019-02-08T11:54:04.519Z,98983.02
2019-02-08T11:56:34.798Z,98979.35
2019-02-08T11:59:05.979Z,98982.23
2019-02-08T12:01:39.828Z,98973.00
2019-02-08T12:04:12.127Z,98973.16
2019-02-08T12:06:43.108Z,98976.45
2019-02-08T12:09:18.505Z,98971.89
2019-02-08T12:11:50.750Z,98970.68
2019-02-08T12:15:10.294Z,98965.69
2019-02-08T12:17:43.237Z,98973.45
2019-02-08T12:20:18.052Z,98966.22
2019-02-08T12:22:49.547Z,98957.75
2019-02-08T12:25:21.052Z,98945.34
2019-02-08T12:27:52.521Z,98951.73
2019-02-08T12:30:29.679Z,98952.69
2019-02-08T12:33:02.340Z,98947.10
2019-02-08T12:35:33.828Z,98941.06
2019-02-08T12:38:04.262Z,98945.21
2019-02-08T12:40:34.728Z,98940.77
2019-02-08T12:43:05.730Z,98942.89
2019-02-08T12:45:35.975Z,98930.89
2019-02-08T12:48:06.391Z,98927.85
2019-02-08T12:50:37.240Z,98934.45
2019-02-08T12:53:07.807Z,98935.45
2019-02-08T12:55:38.668Z,98930.04
2019-02-08T12:58:08.927Z,98936.41
2019-02-08T13:00:39.892Z,98923.83
2019-02-08T13:03:12.492Z,98925.59
2019-02-08T13:05:42.897Z,98929.88
2019-02-08T13:08:13.171Z,98914.39
2019-02-08T13:10:43.405Z,98908.61
2019-02-08T13:13:16.169Z,98920.42
2019-02-08T13:15:47.439Z,98914.66
2019-02-08T13:18:17.842Z,98913.81
2019-02-08T13:20:50.654Z,98909.72
2019-02-08T13:23:33.342Z,98909.42
2019-02-08T13:26:07.434Z,98906.44
2019-02-08T13:28:40.339Z,98898.80
2019-02-08T13:31:10.633Z,98902.23
2019-02-08T13:33:49.402Z,98897.23
2019-02-08T13:36:28.834Z,98903.31
2019-02-08T13:39:08.604Z,98894.22
2019-02-08T13:41:49.858Z,98893.52
2019-02-08T13:44:30.193Z,98889.75
2019-02-08T13:47:11.029Z,98898.13
2019-02-08T13:49:51.234Z,98889.44
2019-02-08T13:52:30.622Z,98890.59
2019-02-08T13:55:15.185Z,98886.99
2019-02-08T13:57:57.013Z,98887.29
2019-02-08T14:00:38.487Z,98889.57
2019-02-08T14:03:20.262Z,98885.83
2019-02-08T14:06:01.950Z,98885.88
2019-02-08T14:08:41.782Z,98891.39
2019-02-08T14:11:20.355Z,98882.89
2019-02-08T14:13:59.687Z,98880.58
2019-02-08T14:16:40.379Z,98881.48
2019-02-08T14:19:20.427Z,98879.52
2019-02-08T14:22:02.344Z,98882.94
2019-02-08T14:24:42.267Z,98876.56
2019-02-08T14:27:14.840Z,98884.05
2019-02-08T14:29:47.066Z,98878.41
2019-02-08T14:32:18.306Z,98877.34
2019-02-08T14:34:49.648Z,98884.37
2019-02-08T14:37:21.928Z,98875.45
2019-02-08T14:39:53.135Z,98877.80
2019-02-08T14:42:23.816Z,98877.72
2019-02-08T14:44:54.059Z,98876.15
2019-02-08T14:47:25.576Z,98878.91
2019-02-08T14:49:56.834Z,98882.60
2019-02-08T14:52:28.101Z,98874.84
2019-02-08T14:54:58.463Z,98877.84
2019-02-08T14:57:28.653Z,98863.63
2019-02-08T14:59:59.451Z,98866.50
2019-02-08T15:02:29.688Z,98862.66
2019-02-08T15:05:00.051Z,98861.12
2019-02-08T15:07:30.275Z,98866.09
2019-02-08T15:10:00.508Z,98864.53
2019-02-08T15:12:30.806Z,98861.12
2019-02-08T15:15:03.251Z,98868.08
2019-02-08T15:17:33.830Z,98864.62
2019-02-08T15:20:07.889Z,98864.13
2019-02-08T15:22:38.145Z,98854.95
2019-02-08T15:25:08.850Z,98851.52
2019-02-08T15:27:39.461Z,98850.72
2019-02-08T15:30:12.584Z,98850.20
2019-02-08T15:32:42.813Z,98860.76
2019-02-08T15:35:13.989Z,98853.09
2019-02-08T15:37:45.663Z,98847.55
2019-02-08T15:40:25.942Z,98846.48
2019-02-08T15:43:19.981Z,98844.91
2019-02-08T15:46:01.665Z,98837.27
2019-02-08T15:48:40.340Z,98835.63
2019-02-08T15:51:10.576Z,98836.16
2019-02-08T15:53:40.809Z,98837.71
2019-02-08T15:56:16.153Z,98833.22
2019-02-08T15:58:47.333Z,98841.95
2019-02-08T16:01:17.727Z,98838.48
2019-02-08T16:03:48.310Z,98838.48
2019-02-08T16:06:18.487Z,98839.52
2019-02-08T16:08:48.691Z,98843.73
2019-02-08T16:11:18.907Z,98844.36
2019-02-08T16:13:49.176Z,98842.44
2019-02-08T16:16:19.651Z,98845.89
2019-02-08T16:18:49.929Z,98833.97
2019-02-08T16:21:20.862Z,98831.83
2019-02-08T16:23:51.182Z,98835.45
2019-02-08T16:26:21.406Z,98834.38
2019-02-08T16:28:51.921Z,98832.87
2019-02-08T16:31:22.756Z,98828.00
2019-02-08T16:33:53.185Z,98836.45
2019-02-08T16:36:23.377Z,98831.72
2019-02-08T16:38:53.585Z,98829.59
2019-02-08T16:41:24.562Z,98823.56
2019-02-08T16:43:54.824Z,98821.61
2019-02-08T16:46:25.259Z,98820.64
2019-02-08T16:48:55.559Z,98818.23
2019-02-08T16:51:26.939Z,98819.04
2019-02-08T16:53:57.225Z,98822.97
2019-02-08T16:56:27.428Z,98822.19
2019-02-08T16:58:57.677Z,98822.91
2019-02-08T17:01:28.079Z,98827.70
2019-02-08T17:03:58.374Z,98825.83
2019-02-08T17:06:28.682Z,98833.79
2019-02-08T17:08:58.898Z,98832.12
2019-02-08T17:11:29.118Z,98834.98
2019-02-08T17:13:59.388Z,98830.22
2019-02-08T17:16:29.934Z,98835.27
2019-02-08T17:19:00.116Z,98841.81
2019-02-08T17:21:30.296Z,98837.84
2019-02-08T17:24:00.731Z,98838.62
2019-02-08T17:26:30.931Z,98834.13
2019-02-08T17:29:01.228Z,98824.64
2019-02-08T17:31:31.629Z,98822.30
2019-02-08T17:34:01.803Z,98820.41
2019-02-08T17:36:32.068Z,98812.97
2019-02-08T17:39:02.797Z,98817.16
2019-02-08T17:41:34.805Z,98825.09
2019-02-08T17:44:05.593Z,98820.61
2019-02-08T17:46:35.834Z,98822.40
2019-02-08T17:49:06.007Z,98817.45
2019-02-08T17:51:37.203Z,98813.72
2019-02-08T17:54:07.493Z,98812.17
2019-02-08T17:56:38.128Z,98813.17
2019-02-08T17:59:08.306Z,98808.98
2019-02-08T18:01:38.571Z,98806.44
2019-02-08T18:04:32.799Z,98809.83
2019-02-08T18:07:03.031Z,98812.30
2019-02-08T18:09:33.240Z,98801.35
2019-02-08T18:12:03.585Z,98791.30
2019-02-08T18:14:33.772Z,98782.39
2019-02-08T18:17:04.164Z,98782.36
2019-02-08T18:19:34.384Z,98789.87
2019-02-08T18:22:04.859Z,98770.66
2019-02-08T18:24:35.054Z,98771.66
2019-02-08T18:27:05.442Z,98763.21
2019-02-08T18:29:35.620Z,98770.71
2019-02-08T18:32:05.938Z,98771.31
2019-02-08T18:34:36.201Z,98769.40
2019-02-08T18:37:06.574Z,98768.64
2019-02-08T18:39:38.043Z,98767.53
2019-02-08T18:42:08.215Z,98764.70
2019-02-08T18:44:38.971Z,98772.59
2019-02-08T18:47:09.228Z,98766.31
2019-02-08T18:49:39.438Z,98759.45
2019-02-08T18:52:09.693Z,98760.56
2019-02-08T18:54:39.863Z,98767.09
2019-02-08T18:57:10.319Z,98758.43
2019-02-08T18:59:41.336Z,98757.67
2019-02-08T19:02:11.803Z,98757.20
2019-02-08T19:04:41.978Z,98760.11
2019-02-08T19:07:12.237Z,98746.62
2019-02-08T19:09:42.874Z,98742.95
2019-02-08T19:12:13.364Z,98742.97
2019-02-08T19:14:43.552Z,98740.92
2019-02-08T19:17:14.525Z,98733.34
2019-02-08T19:19:45.779Z,98732.28
2019-02-08T19:22:15.981Z,98728.33
2019-02-08T19:24:46.189Z,98733.75
2019-02-08T19:27:16.375Z,98729.59
2019-02-08T19:29:46.632Z,98721.86
2019-02-08T19:32:17.759Z,98719.51
2019-02-08T19:34:48.079Z,98710.47
2019-02-08T19:37:18.300Z,98719.84
2019-02-08T19:39:48.552Z,98710.63
2019-02-08T19:42:18.770Z,98706.91
2019-02-08T19:44:48.944Z,98701.16
2019-02-08T19:47:19.172Z,98695.13
2019-02-08T19:49:49.576Z,98694.29
2019-02-08T19:52:19.865Z,98690.65
2019-02-08T19:54:50.091Z,98681.94
2019-02-08T19:57:20.286Z,98682.78
2019-02-08T19:59:50.480Z,98683.23
2019-02-08T20:02:20.745Z,98684.86
2019-02-08T20:04:51.149Z,98679.82
2019-02-08T20:07:21.346Z,98666.93
2019-02-08T20:09:51.757Z,98663.52
2019-02-08T20:12:22.158Z,98660.34
2019-02-08T20:14:52.576Z,98659.06
2019-02-08T20:17:23.004Z,98651.44
2019-02-08T20:19:53.233Z,98652.77
2019-02-08T20:22:23.436Z,98654.88
2019-02-08T20:24:54.054Z,98644.14
2019-02-08T20:27:24.271Z,98653.09
2019-02-08T20:29:54.526Z,98640.20
2019-02-08T20:32:24.818Z,98636.77
2019-02-08T20:34:55.286Z,98629.14
2019-02-08T20:37:25.476Z,98627.58
2019-02-08T20:39:55.705Z,98624.38
2019-02-08T20:42:25.957Z,98617.56
2019-02-08T20:44:56.165Z,98614.40
2019-02-08T20:47:26.345Z,98610.20
2019-02-08T20:49:56.638Z,98608.64
2019-02-08T20:52:26.848Z,98600.75
2019-02-08T20:54:57.091Z,98595.52
2019-02-08T20:57:27.300Z,98587.88
2019-02-08T20:59:57.579Z,98593.14
2019-02-08T21:02:27.914Z,98591.02
2019-02-08T21:04:58.581Z,98591.83
2019-02-08T21:07:28.804Z,98582.09
2019-02-08T21:09:59.077Z,98578.41
2019-02-08T21:12:29.366Z,98576.30
2019-02-08T21:14:59.608Z,98579.19
2019-02-08T21:17:30.152Z,98575.77
2019-02-08T21:20:00.351Z,98572.61
2019-02-08T21:22:30.550Z,98565.25
2019-02-08T21:25:01.273Z,98561.58
2019-02-08T21:27:32.392Z,98562.09
2019-02-08T21:30:03.037Z,98551.34
2019-02-08T21:32:33.235Z,98540.05
2019-02-08T21:35:04.990Z,98541.62
2019-02-08T21:37:36.443Z,98533.20
2019-02-08T21:40:09.119Z,98528.73
2019-02-08T21:42:39.738Z,98523.23
2019-02-08T21:45:13.666Z,98522.45
2019-02-08T21:47:43.842Z,98511.44
2019-02-08T21:50:15.986Z,98509.06
2019-02-08T21:52:46.189Z,98501.42
2019-02-08T21:55:17.463Z,98498.27
2019-02-08T21:57:47.660Z,98486.70
2019-02-08T22:00:21.336Z,98485.92
2019-02-08T22:02:51.852Z,98486.46
2019-02-08T22:05:24.768Z,98500.41
2019-02-08T22:07:55.212Z,98488.05
2019-02-08T22:10:25.814Z,98489.89
2019-02-08T22:12:57.093Z,98480.94
2019-02-08T22:15:30.256Z,98473.05
2019-02-08T22:18:01.010Z,98482.26
2019-02-08T22:20:31.471Z,98469.62
2019-02-08T22:23:01.675Z,98478.32
2019-02-08T22:25:32.441Z,98483.30
2019-02-08T22:28:02.779Z,98474.38
2019-02-08T22:30:33.174Z,98476.72
2019-02-08T22:33:03.676Z,98465.67
2019-02-08T22:35:33.936Z,98470.94
2019-02-08T22:38:04.463Z,98467.52
2019-02-08T22:40:34.750Z,98463.84
2019-02-08T22:43:05.199Z,98463.56
2019-02-08T22:45:36.876Z,98451.45
2019-02-08T22:48:07.950Z,98450.16
2019-02-08T22:50:38.467Z,98442.23
2019-02-08T22:53:10.488Z,98441.99
2019-02-08T22:55:40.737Z,98435.13
2019-02-08T22:58:11.051Z,98441.72
2019-02-08T23:01:11.059Z,98429.08
2019-02-08T23:03:41.386Z,98420.90
2019-02-08T23:06:11.576Z,98422.77
2019-02-08T23:08:41.994Z,98428.83
2019-02-08T23:11:13.187Z,98417.50
2019-02-08T23:13:43.382Z,98418.02
2019-02-08T23:16:13.814Z,98407.73
2019-02-08T23:18:44.507Z,98403.78
2019-02-08T23:21:14.664Z,98394.84
2019-02-08T23:23:45.044Z,98401.42
2019-02-08T23:26:15.186Z,98399.27
2019-02-08T23:28:46.405Z,98385.86
2019-02-08T23:31:16.677Z,98390.85
2019-02-08T23:33:46.925Z,98379.79
2019-02-08T23:36:18.152Z,98376.37
2019-02-08T23:38:48.781Z,98380.07
2019-02-08T23:41:18.996Z,98360.84
2019-02-08T23:43:50.890Z,98349.00
2019-02-08T23:46:21.085Z,98348.72
2019-02-08T23:48:51.338Z,98338.47
2019-02-08T23:51:22.635Z,98338.23
2019-02-08T23:53:53.085Z,98341.91
2019-02-08T23:56:23.408Z,98344.02
2019-02-08T23:58:53.671Z,98336.12
